createdAt,value
2018-06-09T00:01:48.768Z,22.57
2018-06-09T00:04:17.451Z,22.90
2018-06-09T00:06:46.009Z,20.30
2018-06-09T00:09:14.616Z,26.10
2018-06-09T00:11:43.278Z,24.30
2018-06-09T00:14:11.819Z,20.87
2018-06-09T00:16:40.447Z,22.97
2018-06-09T00:19:09.077Z,31.17
2018-06-09T00:21:37.617Z,22.13
2018-06-09T00:24:06.196Z,23.90
2018-06-09T00:26:34.801Z,25.50
2018-06-09T00:29:03.271Z,21.50
2018-06-09T00:31:31.878Z,30.00
2018-06-09T00:34:00.509Z,25.60
2018-06-09T00:36:29.091Z,24.50
2018-06-09T00:38:57.608Z,21.73
2018-06-09T00:41:26.478Z,27.10
2018-06-09T00:43:55.066Z,25.10
2018-06-09T00:46:23.628Z,29.13
2018-06-09T00:48:52.169Z,21.00
2018-06-09T00:51:20.751Z,24.57
2018-06-09T00:53:49.471Z,23.10
2018-06-09T00:56:29.312Z,22.63
2018-06-09T00:58:57.817Z,21.97
2018-06-09T01:01:26.301Z,24.90
2018-06-09T01:03:54.837Z,26.40
2018-06-09T01:06:23.438Z,25.17
2018-06-09T01:08:51.951Z,25.57
2018-06-09T01:11:20.536Z,26.80
2018-06-09T01:13:49.822Z,24.87
2018-06-09T01:16:18.327Z,23.37
2018-06-09T01:18:46.837Z,22.90
2018-06-09T01:21:15.815Z,21.87
2018-06-09T01:23:44.362Z,29.07
2018-06-09T01:26:12.843Z,21.73
2018-06-09T01:28:41.426Z,23.80
2018-06-09T01:31:09.999Z,24.40
2018-06-09T01:33:38.581Z,26.77
2018-06-09T01:36:07.206Z,27.93
2018-06-09T01:38:37.387Z,23.67
2018-06-09T01:41:06.053Z,25.87
2018-06-09T01:43:34.653Z,25.47
2018-06-09T01:46:03.220Z,23.87
2018-06-09T01:48:31.759Z,27.33
2018-06-09T01:51:00.287Z,21.93
2018-06-09T01:53:28.892Z,21.80
2018-06-09T01:55:57.477Z,22.00
2018-06-09T01:58:25.955Z,26.63
2018-06-09T02:00:54.449Z,25.40
2018-06-09T02:03:22.971Z,25.17
2018-06-09T02:05:51.618Z,26.27
2018-06-09T02:08:20.308Z,26.60
2018-06-09T02:10:48.845Z,27.80
2018-06-09T02:13:17.474Z,25.53
2018-06-09T02:15:46.028Z,20.50
2018-06-09T02:18:14.530Z,21.07
2018-06-09T02:20:43.071Z,27.10
2018-06-09T02:23:11.651Z,21.67
2018-06-09T02:25:40.129Z,22.17
2018-06-09T02:28:08.687Z,23.83
2018-06-09T02:30:37.185Z,22.07
2018-06-09T02:33:05.732Z,19.63
2018-06-09T02:35:34.241Z,21.67
2018-06-09T02:38:02.808Z,23.70
2018-06-09T02:40:31.332Z,21.73
2018-06-09T02:42:59.901Z,22.87
2018-06-09T02:45:28.491Z,27.93
2018-06-09T02:47:57.140Z,30.60
2018-06-09T02:50:25.756Z,23.23
2018-06-09T02:52:54.302Z,24.80
2018-06-09T02:55:22.891Z,22.73
2018-06-09T02:57:51.412Z,21.83
2018-06-09T03:00:19.950Z,20.80
2018-06-09T03:02:48.872Z,20.80
2018-06-09T03:05:17.609Z,18.43
2018-06-09T03:07:46.214Z,17.53
2018-06-09T03:10:14.901Z,19.63
2018-06-09T03:12:43.575Z,18.20
2018-06-09T03:15:12.182Z,18.00
2018-06-09T03:17:40.854Z,17.07
2018-06-09T03:20:09.849Z,20.77
2018-06-09T03:22:38.526Z,19.73
2018-06-09T03:25:07.422Z,20.33
2018-06-09T03:27:35.974Z,17.73
2018-06-09T03:30:04.693Z,19.10
2018-06-09T03:32:33.287Z,19.90
2018-06-09T03:35:01.861Z,21.10
2018-06-09T03:37:30.400Z,25.27
2018-06-09T03:39:58.961Z,17.97
2018-06-09T03:42:27.508Z,18.57
2018-06-09T03:44:56.096Z,20.43
2018-06-09T03:47:24.686Z,20.40
2018-06-09T03:49:53.326Z,20.17
2018-06-09T03:52:22.068Z,16.07
2018-06-09T03:54:50.646Z,17.73
2018-06-09T03:57:19.188Z,16.93
2018-06-09T03:59:47.704Z,12.97
2018-06-09T04:02:16.342Z,12.80
2018-06-09T04:04:45.101Z,11.80
2018-06-09T04:07:13.751Z,12.10
2018-06-09T04:09:42.504Z,11.73
2018-06-09T04:12:11.014Z,12.23
2018-06-09T04:14:39.537Z,10.63
2018-06-09T04:17:08.100Z,12.20
2018-06-09T04:19:36.709Z,10.33
2018-06-09T04:22:05.395Z,9.13
2018-06-09T04:24:34.266Z,13.73
2018-06-09T04:27:02.769Z,14.47
2018-06-09T04:29:31.399Z,9.70
2018-06-09T04:32:00.083Z,10.80
2018-06-09T04:34:28.636Z,12.73
2018-06-09T04:36:57.138Z,9.23
2018-06-09T04:39:25.720Z,11.80
2018-06-09T04:41:54.250Z,11.70
2018-06-09T04:44:22.959Z,8.40
2018-06-09T04:46:51.527Z,13.00
2018-06-09T04:49:20.078Z,11.10
2018-06-09T04:51:48.657Z,8.10
2018-06-09T04:54:17.180Z,12.23
2018-06-09T04:56:45.681Z,10.63
2018-06-09T04:59:14.242Z,7.37
2018-06-09T05:01:43.199Z,10.33
2018-06-09T05:04:11.824Z,7.33
2018-06-09T05:06:40.370Z,11.00
2018-06-09T05:09:09.314Z,8.00
2018-06-09T05:11:37.932Z,10.13
2018-06-09T05:14:06.578Z,12.30
2018-06-09T05:16:35.254Z,7.53
2018-06-09T05:19:03.961Z,15.07
2018-06-09T05:21:32.546Z,11.53
2018-06-09T05:24:01.315Z,11.23
2018-06-09T05:26:29.984Z,11.87
2018-06-09T05:28:58.749Z,9.67
2018-06-09T05:31:27.338Z,10.23
2018-06-09T05:33:55.978Z,11.57
2018-06-09T05:36:24.561Z,7.73
2018-06-09T05:38:53.134Z,10.07
2018-06-09T05:41:21.912Z,8.67
2018-06-09T05:43:50.671Z,11.17
2018-06-09T05:46:19.387Z,6.87
2018-06-09T05:48:48.011Z,7.60
2018-06-09T05:51:16.941Z,7.30
2018-06-09T05:53:45.507Z,9.97
2018-06-09T05:56:14.031Z,8.53
2018-06-09T05:58:42.713Z,8.07
2018-06-09T06:01:11.407Z,6.37
2018-06-09T06:03:40.112Z,8.37
2018-06-09T06:06:09.357Z,4.77
2018-06-09T06:08:37.876Z,14.73
2018-06-09T06:11:06.397Z,12.13
2018-06-09T06:13:35.151Z,6.17
2018-06-09T06:16:04.056Z,9.08
2018-06-09T06:18:32.710Z,8.58
2018-06-09T06:21:01.315Z,7.78
2018-06-09T06:23:29.925Z,9.65
2018-06-09T06:25:58.427Z,5.95
2018-06-09T06:28:26.958Z,7.42
2018-06-09T06:30:58.618Z,13.30
2018-06-09T06:33:27.874Z,6.20
2018-06-09T06:35:57.568Z,12.28
2018-06-09T06:38:32.577Z,5.22
2018-06-09T06:41:01.268Z,11.50
2018-06-09T06:43:31.400Z,7.58
2018-06-09T06:46:02.099Z,13.93
2018-06-09T06:48:30.827Z,7.03
2018-06-09T06:50:59.487Z,6.92
2018-06-09T06:53:28.486Z,10.10
2018-06-09T06:55:57.407Z,5.90
2018-06-09T06:58:26.481Z,9.95
2018-06-09T07:01:00.691Z,5.90
2018-06-09T07:03:29.301Z,5.22
2018-06-09T07:05:58.919Z,5.83
2018-06-09T07:08:27.693Z,6.65
2018-06-09T07:10:57.087Z,7.08
2018-06-09T07:13:31.033Z,7.05
2018-06-09T07:15:59.775Z,9.95
2018-06-09T07:18:28.375Z,7.03
2018-06-09T07:20:57.066Z,7.87
2018-06-09T07:23:25.635Z,8.43
2018-06-09T07:25:57.280Z,11.48
2018-06-09T07:28:26.251Z,7.83
2018-06-09T07:30:55.291Z,8.53
2018-06-09T07:33:23.843Z,9.28
2018-06-09T07:35:52.453Z,8.60
2018-06-09T07:38:21.118Z,7.60
2018-06-09T07:40:49.831Z,9.50
2018-06-09T07:43:18.392Z,6.75
2018-06-09T07:45:47.038Z,8.53
2018-06-09T07:48:15.619Z,11.90
2018-06-09T07:50:44.306Z,9.85
2018-06-09T07:53:13.129Z,4.30
2018-06-09T07:55:42.025Z,9.15
2018-06-09T07:58:11.504Z,5.58
2018-06-09T08:00:40.529Z,7.28
2018-06-09T08:03:09.224Z,4.53
2018-06-09T08:05:37.803Z,6.10
2018-06-09T08:08:06.440Z,7.50
2018-06-09T08:10:35.084Z,8.28
2018-06-09T08:13:03.655Z,9.33
2018-06-09T08:15:32.235Z,6.45
2018-06-09T08:18:00.915Z,9.28
2018-06-09T08:20:29.636Z,6.47
2018-06-09T08:22:58.226Z,7.65
2018-06-09T08:25:27.405Z,7.80
2018-06-09T08:27:55.950Z,5.25
2018-06-09T08:30:24.570Z,14.95
2018-06-09T08:32:53.111Z,7.58
2018-06-09T08:35:21.859Z,7.70
2018-06-09T08:37:50.840Z,11.93
2018-06-09T08:40:19.467Z,8.88
2018-06-09T08:42:47.986Z,8.60
2018-06-09T08:45:16.633Z,11.95
2018-06-09T08:47:45.114Z,6.47
2018-06-09T08:50:14.484Z,12.88
2018-06-09T08:52:43.040Z,9.83
2018-06-09T08:55:11.659Z,6.70
2018-06-09T08:57:40.504Z,8.65
2018-06-09T09:00:09.171Z,13.90
2018-06-09T09:02:37.693Z,9.23
2018-06-09T09:05:06.269Z,8.35
2018-06-09T09:07:34.867Z,5.95
2018-06-09T09:10:03.505Z,8.98
2018-06-09T09:12:32.095Z,10.08
2018-06-09T09:15:00.915Z,10.63
2018-06-09T09:17:29.653Z,5.08
2018-06-09T09:19:58.199Z,8.33
2018-06-09T09:22:26.717Z,7.25
2018-06-09T09:24:55.528Z,8.73
2018-06-09T09:27:24.447Z,6.17
2018-06-09T09:29:53.106Z,10.30
2018-06-09T09:32:21.828Z,6.75
2018-06-09T09:34:50.410Z,9.63
2018-06-09T09:37:19.025Z,7.25
2018-06-09T09:39:47.611Z,7.85
2018-06-09T09:42:16.090Z,9.78
2018-06-09T09:44:44.903Z,6.65
2018-06-09T09:47:13.398Z,8.30
2018-06-09T09:49:41.953Z,10.55
2018-06-09T09:52:10.636Z,7.95
2018-06-09T09:54:40.246Z,7.83
2018-06-09T09:57:09.205Z,6.35
2018-06-09T09:59:37.858Z,6.45
2018-06-09T10:02:06.631Z,5.95
2018-06-09T10:04:35.188Z,7.95
2018-06-09T10:07:03.980Z,7.97
2018-06-09T10:09:32.790Z,5.25
2018-06-09T10:12:01.905Z,9.05
2018-06-09T10:14:30.743Z,7.25
2018-06-09T10:16:59.267Z,5.97
2018-06-09T10:19:27.754Z,8.10
2018-06-09T10:21:56.533Z,7.50
2018-06-09T10:24:25.023Z,14.10
2018-06-09T10:26:53.527Z,5.80
2018-06-09T10:29:22.045Z,9.03
2018-06-09T10:31:50.823Z,7.55
2018-06-09T10:34:19.552Z,6.33
2018-06-09T10:36:48.468Z,5.50
2018-06-09T10:39:17.009Z,6.08
2018-06-09T10:41:45.980Z,6.10
2018-06-09T10:44:15.005Z,6.10
2018-06-09T10:46:43.522Z,11.15
2018-06-09T10:49:12.168Z,5.42
2018-06-09T10:51:40.680Z,10.82
2018-06-09T10:54:09.148Z,7.72
2018-06-09T10:56:38.053Z,8.08
2018-06-09T10:59:07.042Z,7.15
2018-06-09T11:01:35.571Z,6.33
2018-06-09T11:04:04.132Z,5.80
2018-06-09T11:06:32.763Z,5.53
2018-06-09T11:09:01.324Z,6.85
2018-06-09T11:11:30.211Z,6.67
2018-06-09T11:13:58.774Z,6.33
2018-06-09T11:16:27.345Z,8.08
2018-06-09T11:18:55.933Z,6.50
2018-06-09T11:21:24.552Z,10.20
2018-06-09T11:23:53.804Z,7.55
2018-06-09T11:26:22.627Z,6.35
2018-06-09T11:28:51.369Z,11.03
2018-06-09T11:31:20.562Z,11.48
2018-06-09T11:33:49.254Z,8.48
2018-06-09T11:36:18.391Z,7.20
2018-06-09T11:38:47.453Z,7.40
2018-06-09T11:41:16.172Z,15.08
2018-06-09T11:43:45.031Z,11.25
2018-06-09T11:46:14.001Z,8.23
2018-06-09T11:48:42.491Z,7.80
2018-06-09T11:51:11.020Z,9.40
2018-06-09T11:53:39.550Z,10.40
2018-06-09T11:56:08.317Z,5.60
2018-06-09T11:58:37.449Z,6.85
2018-06-09T12:01:06.376Z,9.35
2018-06-09T12:03:34.916Z,12.75
2018-06-09T12:06:03.427Z,6.35
2018-06-09T12:08:31.979Z,12.58
2018-06-09T12:11:00.597Z,8.33
2018-06-09T12:13:29.131Z,7.87
2018-06-09T12:15:57.669Z,9.25
2018-06-09T12:18:26.661Z,8.90
2018-06-09T12:20:55.180Z,16.23
2018-06-09T12:23:23.752Z,8.48
2018-06-09T12:25:52.323Z,36.53
2018-06-09T12:28:20.910Z,9.83
2018-06-09T12:30:49.529Z,9.80
2018-06-09T12:33:18.147Z,7.60
2018-06-09T12:35:46.955Z,8.55
2018-06-09T12:38:15.547Z,7.53
2018-06-09T12:40:44.188Z,9.93
2018-06-09T12:43:12.776Z,7.95
2018-06-09T12:45:41.338Z,9.18
2018-06-09T12:48:09.934Z,7.97
2018-06-09T12:50:39.760Z,12.75
2018-06-09T12:53:08.987Z,11.70
2018-06-09T12:55:38.438Z,7.17
2018-06-09T12:58:07.339Z,13.88
2018-06-09T13:00:35.957Z,13.35
2018-06-09T13:03:04.737Z,9.15
2018-06-09T13:05:33.635Z,12.10
2018-06-09T13:08:02.261Z,8.88
2018-06-09T13:10:30.938Z,10.00
2018-06-09T13:12:59.499Z,8.03
2018-06-09T13:15:28.245Z,9.38
2018-06-09T13:17:56.949Z,8.15
2018-06-09T13:20:25.418Z,6.37
2018-06-09T13:22:53.941Z,9.40
2018-06-09T13:25:22.577Z,9.93
2018-06-09T13:27:51.094Z,6.75
2018-06-09T13:30:19.611Z,11.05
2018-06-09T13:32:48.262Z,6.80
2018-06-09T13:35:16.813Z,9.35
2018-06-09T13:37:45.300Z,6.35
2018-06-09T13:40:13.848Z,8.90
2018-06-09T13:42:44.498Z,8.68
2018-06-09T13:45:13.735Z,9.53
2018-06-09T13:47:42.360Z,8.00
2018-06-09T13:50:10.910Z,7.47
2018-06-09T13:52:39.558Z,8.78
2018-06-09T13:55:08.203Z,10.18
2018-06-09T13:57:36.998Z,6.95
2018-06-09T14:00:05.728Z,9.25
2018-06-09T14:02:34.329Z,14.15
2018-06-09T14:05:02.921Z,15.48
2018-06-09T14:07:31.470Z,6.58
2018-06-09T14:10:00.693Z,8.88
2018-06-09T14:12:29.175Z,7.92
2018-06-09T14:14:57.765Z,10.03
2018-06-09T14:17:26.300Z,7.85
2018-06-09T14:19:54.814Z,12.50
2018-06-09T14:22:23.367Z,11.33
2018-06-09T14:24:52.026Z,13.30
2018-06-09T14:27:20.564Z,9.45
2018-06-09T14:29:49.103Z,6.47
2018-06-09T14:32:17.811Z,5.00
2018-06-09T14:34:46.548Z,6.90
2018-06-09T14:37:15.027Z,4.95
2018-06-09T14:39:43.549Z,7.00
2018-06-09T14:42:12.049Z,12.82
2018-06-09T14:44:40.603Z,6.50
2018-06-09T14:47:09.133Z,15.18
2018-06-09T14:49:38.042Z,6.65
2018-06-09T14:52:06.697Z,7.87
2018-06-09T14:54:35.257Z,10.28
2018-06-09T14:57:04.585Z,6.15
2018-06-09T14:59:33.172Z,7.67
2018-06-09T15:02:02.076Z,7.22
2018-06-09T15:04:30.894Z,6.28
2018-06-09T15:06:59.615Z,6.50
2018-06-09T15:09:28.563Z,5.03
2018-06-09T15:11:57.356Z,5.72
2018-06-09T15:14:25.952Z,4.85
2018-06-09T15:16:54.630Z,7.28
2018-06-09T15:19:23.136Z,4.17
2018-06-09T15:21:51.783Z,3.65
2018-06-09T15:24:20.543Z,4.40
2018-06-09T15:26:49.555Z,4.12
2018-06-09T15:29:18.206Z,4.22
2018-06-09T15:31:46.928Z,5.85
2018-06-09T15:34:15.436Z,5.30
2018-06-09T15:36:43.999Z,5.47
2018-06-09T15:39:12.675Z,5.05
2018-06-09T15:41:41.195Z,4.60
2018-06-09T15:44:10.061Z,6.42
2018-06-09T15:46:38.834Z,7.08
2018-06-09T15:49:07.445Z,7.22
2018-06-09T15:51:36.248Z,5.40
2018-06-09T15:54:05.075Z,8.33
2018-06-09T15:56:33.860Z,5.85
2018-06-09T15:59:02.379Z,10.40
2018-06-09T16:01:31.142Z,5.83
2018-06-09T16:03:59.989Z,7.03
2018-06-09T16:06:28.486Z,5.35
2018-06-09T16:08:57.076Z,5.87
2018-06-09T16:11:25.671Z,7.58
2018-06-09T16:13:54.239Z,8.15
2018-06-09T16:16:22.899Z,5.83
2018-06-09T16:18:51.583Z,5.87
2018-06-09T16:21:20.260Z,9.28
2018-06-09T16:23:48.894Z,7.83
2018-06-09T16:26:17.438Z,8.30
2018-06-09T16:28:46.123Z,7.70
2018-06-09T16:31:15.117Z,8.33
2018-06-09T16:33:43.869Z,7.90
2018-06-09T16:36:12.951Z,7.92
2018-06-09T16:38:41.552Z,6.40
2018-06-09T16:41:10.466Z,8.85
2018-06-09T16:43:39.282Z,9.73
2018-06-09T16:46:07.764Z,7.55
2018-06-09T16:48:36.369Z,7.25
2018-06-09T16:51:04.877Z,7.65
2018-06-09T16:53:33.494Z,6.47
2018-06-09T16:56:02.118Z,8.00
2018-06-09T16:58:30.945Z,6.35
2018-06-09T17:01:00.145Z,6.85
2018-06-09T17:03:28.678Z,6.87
2018-06-09T17:05:57.430Z,6.10
2018-06-09T17:08:26.275Z,9.00
2018-06-09T17:10:54.856Z,5.90
2018-06-09T17:13:23.762Z,7.95
2018-06-09T17:15:52.632Z,6.00
2018-06-09T17:18:21.275Z,7.28
2018-06-09T17:20:49.895Z,5.28
2018-06-09T17:23:18.546Z,11.83
2018-06-09T17:25:47.045Z,5.97
2018-06-09T17:28:16.037Z,5.58
2018-06-09T17:30:44.608Z,7.72
2018-06-09T17:33:13.247Z,4.90
2018-06-09T17:35:41.880Z,6.53
2018-06-09T17:38:10.580Z,5.17
2018-06-09T17:40:39.169Z,6.58
2018-06-09T17:43:07.957Z,5.35
2018-06-09T17:45:36.755Z,9.68
2018-06-09T17:48:05.372Z,4.97
2018-06-09T17:50:34.631Z,6.08
2018-06-09T17:53:03.160Z,4.95
2018-06-09T17:55:31.968Z,6.67
2018-06-09T17:58:00.531Z,7.65
2018-06-09T18:00:29.211Z,5.95
2018-06-09T18:02:57.723Z,6.92
2018-06-09T18:05:26.309Z,6.95
2018-06-09T18:07:55.030Z,7.60
2018-06-09T18:10:23.578Z,7.40
2018-06-09T18:12:52.121Z,10.05
2018-06-09T18:15:21.093Z,7.72
2018-06-09T18:17:49.924Z,6.67
2018-06-09T18:20:18.513Z,5.67
2018-06-09T18:22:47.109Z,5.53
2018-06-09T18:25:15.721Z,5.87
2018-06-09T18:27:44.477Z,5.50
2018-06-09T18:30:13.098Z,6.53
2018-06-09T18:32:41.607Z,9.08
2018-06-09T18:35:10.144Z,5.45
2018-06-09T18:37:38.878Z,6.12
2018-06-09T18:40:07.593Z,6.97
2018-06-09T18:42:36.091Z,8.00
2018-06-09T18:45:04.918Z,5.92
2018-06-09T18:47:34.508Z,5.17
2018-06-09T18:50:03.046Z,8.58
2018-06-09T18:52:31.865Z,7.42
2018-06-09T18:55:01.213Z,5.47
2018-06-09T18:57:30.089Z,7.72
2018-06-09T18:59:58.600Z,5.72
2018-06-09T19:02:27.152Z,6.15
2018-06-09T19:04:55.722Z,6.03
2018-06-09T19:07:24.380Z,6.03
2018-06-09T19:09:53.122Z,6.58
2018-06-09T19:12:22.205Z,7.47
2018-06-09T19:14:50.781Z,9.33
2018-06-09T19:17:20.006Z,8.00
2018-06-09T19:19:48.601Z,9.05
2018-06-09T19:22:17.252Z,6.60
2018-06-09T19:24:45.997Z,8.30
2018-06-09T19:27:14.649Z,9.18
2018-06-09T19:29:43.237Z,6.75
2018-06-09T19:32:11.921Z,10.43
2018-06-09T19:34:40.370Z,6.87
2018-06-09T19:37:08.932Z,6.17
2018-06-09T19:39:37.469Z,8.45
2018-06-09T19:42:06.157Z,6.95
2018-06-09T19:44:34.842Z,8.68
2018-06-09T19:47:03.344Z,7.78
2018-06-09T19:49:31.923Z,6.75
2018-06-09T19:52:00.503Z,8.53
2018-06-09T19:54:28.905Z,9.07
2018-06-09T19:56:57.396Z,9.30
2018-06-09T19:59:25.954Z,7.83
2018-06-09T20:01:54.574Z,7.83
2018-06-09T20:04:23.611Z,8.73
2018-06-09T20:06:52.160Z,10.07
2018-06-09T20:09:20.662Z,9.07
2018-06-09T20:11:49.244Z,9.07
2018-06-09T20:14:17.799Z,7.53
2018-06-09T20:16:46.557Z,8.13
2018-06-09T20:19:15.386Z,7.50
2018-06-09T20:21:43.884Z,9.63
2018-06-09T20:24:12.438Z,7.17
2018-06-09T20:26:40.957Z,10.60
2018-06-09T20:29:09.490Z,8.73
2018-06-09T20:31:38.189Z,12.13
2018-06-09T20:34:07.015Z,11.83
2018-06-09T20:36:37.018Z,14.13
2018-06-09T20:39:07.196Z,10.87
2018-06-09T20:41:36.174Z,10.70
2018-06-09T20:44:04.846Z,8.87
2018-06-09T20:46:33.921Z,10.20
2018-06-09T20:49:02.558Z,10.67
2018-06-09T20:51:31.312Z,10.17
2018-06-09T20:54:00.273Z,8.77
2018-06-09T20:56:29.117Z,10.77
2018-06-09T20:58:57.669Z,8.40
2018-06-09T21:01:26.735Z,9.50
2018-06-09T21:03:55.271Z,12.57
2018-06-09T21:06:24.184Z,9.77
2018-06-09T21:08:53.199Z,13.90
2018-06-09T21:11:21.741Z,12.63
2018-06-09T21:13:50.779Z,10.90
2018-06-09T21:16:19.308Z,11.93
2018-06-09T21:18:47.881Z,10.00
2018-06-09T21:21:17.815Z,12.93
2018-06-09T21:23:46.651Z,12.40
2018-06-09T21:26:15.201Z,12.27
2018-06-09T21:28:48.939Z,13.53
2018-06-09T21:31:22.701Z,14.10
2018-06-09T21:34:06.349Z,13.10
2018-06-09T21:36:40.071Z,16.67
2018-06-09T21:39:14.547Z,12.20
2018-06-09T21:41:48.743Z,10.83
2018-06-09T21:44:22.570Z,12.90
2018-06-09T21:46:51.387Z,13.07
2018-06-09T21:49:20.028Z,14.10
2018-06-09T21:51:48.744Z,12.97
2018-06-09T21:54:17.326Z,15.60
2018-06-09T21:56:46.000Z,10.77
2018-06-09T21:59:14.587Z,11.77
2018-06-09T22:01:43.271Z,9.83
2018-06-09T22:04:11.815Z,12.83
2018-06-09T22:06:40.301Z,9.77
2018-06-09T22:09:08.739Z,9.53
2018-06-09T22:11:37.355Z,10.93
2018-06-09T22:14:06.019Z,14.77
2018-06-09T22:16:34.505Z,11.33
2018-06-09T22:19:03.002Z,9.20
2018-06-09T22:21:31.539Z,9.53
2018-06-09T22:24:00.031Z,13.77
2018-06-09T22:26:28.547Z,13.70
2018-06-09T22:28:57.048Z,11.40
2018-06-09T22:31:25.530Z,11.27
2018-06-09T22:33:54.059Z,8.67
2018-06-09T22:36:22.557Z,9.50
2018-06-09T22:38:51.055Z,9.90
2018-06-09T22:41:19.630Z,10.47
2018-06-09T22:43:48.116Z,9.30
2018-06-09T22:46:16.676Z,8.60
2018-06-09T22:48:45.266Z,10.60
2018-06-09T22:51:13.897Z,10.63
2018-06-09T22:53:42.468Z,9.07
2018-06-09T22:56:10.979Z,7.70
2018-06-09T22:58:39.486Z,9.47
2018-06-09T23:01:08.114Z,14.53
2018-06-09T23:03:36.746Z,10.73
2018-06-09T23:06:05.439Z,15.47
2018-06-09T23:08:34.301Z,9.07
2018-06-09T23:11:02.824Z,14.73
2018-06-09T23:13:31.403Z,9.77
2018-06-09T23:15:59.985Z,13.87
2018-06-09T23:18:28.527Z,8.37
2018-06-09T23:20:57.045Z,8.67
2018-06-09T23:23:25.594Z,11.37
2018-06-09T23:25:54.179Z,13.57
2018-06-09T23:28:22.708Z,8.03
2018-06-09T23:30:51.263Z,9.40
2018-06-09T23:33:19.805Z,11.57
2018-06-09T23:35:48.307Z,9.63
2018-06-09T23:38:16.779Z,9.50
2018-06-09T23:40:45.408Z,15.00
2018-06-09T23:43:13.904Z,10.40
2018-06-09T23:45:42.431Z,14.87
2018-06-09T23:48:10.891Z,11.40
2018-06-09T23:50:39.504Z,10.40
2018-06-09T23:53:08.074Z,11.70
2018-06-09T23:55:36.594Z,9.67
2018-06-09T23:58:05.229Z,10.77
